Time;durP1;ratioP1;P1;durP2;ratioP2;P2;SDS_P1;SDS_P2;PMS_P1;PMS_P2;Temp;Humidity;BMP_temperature;BMP_pressure;BME280_temperature;BME280_humidity;BME280_pressure;Samples;Min_cycle;Max_cycle;Signal;HPM_P1;HPM_P2
2023/03/13 00:00:46;;;;;;;0.10;0.10;;;12.90;99.90;;;;;;5090353;28;20024;-79
2023/03/13 00:03:12;;;;;;;0.00;0.00;;;13.00;99.90;;;;;;5094988;28;21527;-77
2023/03/13 00:05:37;;;;;;;0.00;0.00;;;13.00;99.90;;;;;;5095494;28;20089;-77
2023/03/13 00:08:03;;;;;;;0.10;0.10;;;13.00;99.90;;;;;;5097093;28;20028;-78
2023/03/13 00:10:29;;;;;;;0.10;0.10;;;12.90;99.90;;;;;;5093657;28;20427;-77
2023/03/13 00:12:54;;;;;;;0.00;0.00;;;12.90;99.90;;;;;;5076332;28;20056;-77
2023/03/13 00:15:20;;;;;;;0.10;0.10;;;12.90;99.90;;;;;;5099468;28;20039;-77
2023/03/13 00:17:46;;;;;;;0.00;0.00;;;12.90;99.90;;;;;;5077606;28;20089;-77
2023/03/13 00:20:12;;;;;;;0.10;0.10;;;12.90;99.90;;;;;;5097522;28;20376;-77
2023/03/13 00:22:37;;;;;;;0.57;0.57;;;12.90;99.90;;;;;;5096554;28;20525;-77
2023/03/13 00:25:03;;;;;;;0.65;0.65;;;12.90;99.90;;;;;;5090122;28;20127;-77
2023/03/13 00:27:33;;;;;;;0.00;0.00;;;12.90;99.90;;;;;;5097225;28;20030;-79
2023/03/13 00:29:59;;;;;;;0.10;0.10;;;12.90;99.90;;;;;;5100540;28;20026;-79
2023/03/13 00:32:24;;;;;;;0.10;0.10;;;12.90;99.90;;;;;;5088363;28;20051;-79
2023/03/13 00:34:50;;;;;;;2.97;0.67;;;12.90;99.90;;;;;;5097834;28;20036;-79
2023/03/13 00:37:16;;;;;;;0.00;0.00;;;12.90;99.90;;;;;;5074431;28;20577;-79
2023/03/13 00:39:41;;;;;;;0.10;0.10;;;12.90;99.90;;;;;;5091955;28;20832;-79
2023/03/13 00:42:07;;;;;;;0.00;0.00;;;12.80;99.90;;;;;;5064150;28;20035;-79
2023/03/13 00:44:33;;;;;;;0.03;0.03;;;12.90;99.90;;;;;;5079322;28;20039;-79
2023/03/13 00:46:58;;;;;;;0.33;0.33;;;12.90;99.90;;;;;;5100176;28;20538;-78
2023/03/13 00:49:24;;;;;;;1.20;0.63;;;12.90;99.90;;;;;;5084201;28;20035;-78
2023/03/13 00:51:50;;;;;;;0.00;0.00;;;12.90;99.90;;;;;;5099644;28;20019;-78
2023/03/13 00:54:15;;;;;;;0.10;0.10;;;12.90;99.90;;;;;;5089272;28;20100;-77
2023/03/13 00:56:41;;;;;;;0.00;0.00;;;12.90;99.90;;;;;;5095677;28;20048;-77
2023/03/13 00:59:07;;;;;;;0.10;0.10;;;12.90;99.90;;;;;;5094820;28;20032;-77
2023/03/13 01:01:36;;;;;;;0.15;0.15;;;12.90;99.90;;;;;;5098347;28;20032;-77
2023/03/13 01:04:07;;;;;;;0.20;0.20;;;12.90;99.90;;;;;;5093611;28;20198;-77
2023/03/13 01:06:35;;;;;;;0.00;0.00;;;12.90;99.90;;;;;;5097296;28;20036;-78
2023/03/13 01:09:02;;;;;;;0.45;0.45;;;12.90;99.90;;;;;;5092352;28;20056;-77
2023/03/13 01:11:30;;;;;;;0.10;0.10;;;12.80;99.90;;;;;;5101187;28;20085;-78
2023/03/13 01:14:01;;;;;;;0.22;0.22;;;12.90;99.90;;;;;;5100526;28;20158;-77
2023/03/13 01:16:29;;;;;;;0.00;0.00;;;12.90;99.90;;;;;;5085678;28;20541;-78
2023/03/13 01:18:57;;;;;;;0.20;0.20;;;12.90;99.90;;;;;;5077718;28;20558;-77
2023/03/13 01:21:24;;;;;;;0.00;0.00;;;12.90;99.90;;;;;;5102212;28;20371;-77
2023/03/13 01:23:51;;;;;;;0.10;0.10;;;12.90;99.90;;;;;;5097539;28;20055;-78
2023/03/13 01:26:17;;;;;;;0.00;0.00;;;12.90;99.90;;;;;;5081329;28;20478;-78
2023/03/13 01:28:43;;;;;;;0.10;0.10;;;12.90;99.90;;;;;;5099244;28;20019;-78
2023/03/13 01:31:11;;;;;;;0.00;0.00;;;12.80;99.90;;;;;;5096912;28;20517;-78
2023/03/13 01:33:37;;;;;;;0.00;0.00;;;12.90;99.90;;;;;;5100049;28;20477;-79
2023/03/13 01:36:03;;;;;;;0.00;0.00;;;12.90;99.90;;;;;;5099889;28;20020;-79
2023/03/13 01:38:29;;;;;;;0.10;0.10;;;12.90;99.90;;;;;;5100464;28;20068;-78
2023/03/13 01:40:54;;;;;;;0.00;0.00;;;12.90;99.90;;;;;;5094869;28;20028;-78
2023/03/13 01:43:27;;;;;;;0.00;0.00;;;12.90;99.90;;;;;;5095290;28;20028;-78
2023/03/13 01:45:52;;;;;;;0.10;0.10;;;12.80;99.90;;;;;;5092795;28;20653;-78
2023/03/13 01:48:20;;;;;;;0.43;0.43;;;12.90;99.90;;;;;;5102450;28;20020;-78
2023/03/13 01:50:46;;;;;;;0.10;0.10;;;12.90;99.90;;;;;;5095310;28;20024;-78
2023/03/13 01:53:12;;;;;;;0.00;0.00;;;12.80;99.90;;;;;;5083677;28;20036;-78
2023/03/13 01:55:38;;;;;;;0.00;0.00;;;12.80;99.90;;;;;;5099556;28;20100;-78
2023/03/13 01:58:04;;;;;;;0.30;0.30;;;12.80;99.90;;;;;;5100402;28;20027;-78
2023/03/13 02:00:33;;;;;;;0.73;0.40;;;12.80;99.90;;;;;;5103480;28;20032;-78
2023/03/13 02:03:09;;;;;;;0.10;0.10;;;12.70;99.90;;;;;;5100673;28;20047;-79
2023/03/13 02:05:36;;;;;;;0.00;0.00;;;12.70;99.90;;;;;;5080172;28;20509;-79
2023/03/13 02:08:24;;;;;;;0.00;0.00;;;12.80;99.90;;;;;;5088003;28;20036;-79
2023/03/13 02:11:15;;;;;;;0.10;0.10;;;12.70;99.90;;;;;;5095062;28;20051;-78
2023/03/13 02:13:42;;;;;;;0.10;0.10;;;12.70;99.90;;;;;;5091113;28;20036;-78
2023/03/13 02:16:09;;;;;;;0.10;0.10;;;12.60;99.90;;;;;;5093875;28;20111;-78
2023/03/13 02:18:37;;;;;;;0.10;0.10;;;12.50;99.90;;;;;;5104194;28;20035;-77
2023/03/13 02:21:34;;;;;;;0.10;0.10;;;12.50;99.90;;;;;;5081885;28;20039;-78
2023/03/13 02:24:12;;;;;;;1.08;0.38;;;12.40;99.90;;;;;;5077567;28;20122;-77
2023/03/13 02:26:37;;;;;;;0.00;0.00;;;12.30;99.90;;;;;;5097790;28;20048;-78
2023/03/13 02:29:04;;;;;;;0.10;0.10;;;12.20;99.90;;;;;;5096851;28;20217;-78
2023/03/13 02:31:30;;;;;;;0.10;0.10;;;12.10;99.90;;;;;;5100259;28;20024;-78
2023/03/13 02:33:59;;;;;;;0.00;0.00;;;12.10;99.90;;;;;;5080943;28;20089;-78
2023/03/13 02:36:26;;;;;;;0.10;0.10;;;12.00;99.90;;;;;;5080369;28;20035;-78
2023/03/13 02:38:57;;;;;;;0.10;0.10;;;12.00;99.90;;;;;;5095260;28;20028;-78
2023/03/13 02:41:24;;;;;;;0.10;0.10;;;12.00;99.90;;;;;;5077672;28;20036;-78
2023/03/13 02:43:50;;;;;;;0.20;0.20;;;12.00;99.90;;;;;;5085811;28;20853;-77
2023/03/13 02:46:18;;;;;;;0.00;0.00;;;11.90;99.90;;;;;;5095413;28;20027;-78
2023/03/13 02:48:51;;;;;;;0.00;0.00;;;11.90;99.90;;;;;;5073508;28;20063;-77
2023/03/13 02:51:24;;;;;;;0.10;0.10;;;11.80;99.90;;;;;;5099743;28;20660;-78
2023/03/13 02:53:53;;;;;;;0.00;0.00;;;11.70;99.90;;;;;;5097379;28;20051;-78
2023/03/13 02:56:22;;;;;;;0.10;0.10;;;11.80;99.90;;;;;;5076507;28;20078;-77
2023/03/13 02:58:48;;;;;;;0.10;0.10;;;11.80;99.90;;;;;;5080511;28;20081;-77
2023/03/13 03:01:14;;;;;;;0.00;0.00;;;11.80;99.90;;;;;;5101293;28;20031;-78
2023/03/13 03:03:39;;;;;;;0.22;0.22;;;11.70;99.90;;;;;;5083040;28;20097;-78
2023/03/13 03:06:06;;;;;;;0.00;0.00;;;11.70;99.90;;;;;;5100153;28;20491;-77
2023/03/13 03:08:32;;;;;;;0.10;0.10;;;11.60;99.90;;;;;;5091651;28;20131;-77
2023/03/13 03:10:58;;;;;;;0.00;0.00;;;11.60;99.90;;;;;;5070273;28;20028;-77
2023/03/13 03:13:23;;;;;;;0.10;0.10;;;11.60;99.90;;;;;;5097053;28;20035;-77
2023/03/13 03:15:49;;;;;;;0.10;0.10;;;11.60;99.90;;;;;;5099058;28;20023;-78
2023/03/13 03:18:15;;;;;;;0.00;0.00;;;11.50;99.90;;;;;;5102540;28;20031;-78
2023/03/13 03:20:41;;;;;;;0.00;0.00;;;11.60;99.90;;;;;;5102467;28;20138;-78
2023/03/13 03:23:06;;;;;;;0.10;0.10;;;11.50;99.90;;;;;;5103708;28;20475;-78
2023/03/13 03:25:32;;;;;;;0.20;0.20;;;11.50;99.90;;;;;;5092979;28;20169;-78
2023/03/13 03:27:58;;;;;;;0.10;0.10;;;11.40;99.90;;;;;;5077653;28;20034;-78
2023/03/13 03:30:23;;;;;;;0.10;0.10;;;11.40;99.90;;;;;;5078729;28;20062;-78
2023/03/13 03:32:49;;;;;;;0.10;0.10;;;11.30;99.90;;;;;;5075542;28;20028;-78
2023/03/13 03:35:15;;;;;;;0.57;0.57;;;11.40;99.90;;;;;;5074094;28;20115;-78
2023/03/13 03:37:40;;;;;;;0.13;0.13;;;11.30;99.90;;;;;;5077794;28;20783;-78
2023/03/13 03:40:06;;;;;;;0.10;0.10;;;11.20;99.90;;;;;;5095410;28;20032;-78
2023/03/13 03:42:33;;;;;;;0.00;0.00;;;11.20;99.90;;;;;;5091831;28;20032;-77
2023/03/13 03:44:58;;;;;;;0.20;0.20;;;11.10;99.90;;;;;;5080590;28;20044;-78
2023/03/13 03:47:24;;;;;;;0.00;0.00;;;11.10;99.90;;;;;;5076538;28;20038;-78
2023/03/13 03:49:50;;;;;;;0.10;0.10;;;11.10;99.90;;;;;;5100193;28;20497;-78
2023/03/13 03:52:16;;;;;;;0.10;0.10;;;11.10;99.90;;;;;;5078953;28;20032;-77
2023/03/13 03:54:41;;;;;;;0.22;0.22;;;11.10;99.90;;;;;;5098199;28;20028;-77
2023/03/13 03:57:07;;;;;;;0.00;0.00;;;11.20;99.90;;;;;;5088600;28;20618;-77
2023/03/13 03:59:33;;;;;;;0.00;0.00;;;11.20;99.90;;;;;;5085931;28;20633;-77
2023/03/13 04:01:58;;;;;;;0.00;0.00;;;11.30;99.90;;;;;;5100788;28;20388;-77
2023/03/13 04:04:26;;;;;;;0.00;0.00;;;11.30;99.90;;;;;;5098368;28;20399;-78
2023/03/13 04:06:51;;;;;;;0.10;0.10;;;11.30;99.90;;;;;;5094074;28;20024;-79
2023/03/13 04:09:17;;;;;;;0.00;0.00;;;11.30;99.90;;;;;;5095963;28;20783;-78
2023/03/13 04:11:42;;;;;;;0.10;0.10;;;11.30;99.90;;;;;;5098783;28;20031;-78
2023/03/13 04:14:08;;;;;;;0.00;0.00;;;11.20;99.90;;;;;;5082036;28;20039;-78
2023/03/13 04:16:34;;;;;;;0.10;0.10;;;11.20;99.90;;;;;;5089563;28;20020;-77
2023/03/13 04:18:59;;;;;;;1.45;0.75;;;11.10;99.90;;;;;;5101484;28;20038;-77
2023/03/13 04:21:25;;;;;;;0.35;0.35;;;10.90;99.90;;;;;;5095444;28;20074;-78
2023/03/13 04:23:51;;;;;;;0.70;0.70;;;10.90;99.90;;;;;;5095426;28;20066;-77
2023/03/13 04:26:16;;;;;;;0.05;0.05;;;10.90;99.90;;;;;;5076659;28;20024;-77
2023/03/13 04:28:42;;;;;;;0.00;0.00;;;10.90;99.90;;;;;;5099734;28;20027;-77
2023/03/13 04:31:08;;;;;;;0.10;0.10;;;11.00;99.90;;;;;;5099364;28;20030;-78
2023/03/13 04:33:35;;;;;;;0.10;0.10;;;11.00;99.90;;;;;;5093534;28;20502;-78
2023/03/13 04:36:01;;;;;;;0.10;0.10;;;10.90;99.90;;;;;;5084182;28;20023;-79
2023/03/13 04:38:27;;;;;;;0.10;0.10;;;10.90;99.90;;;;;;5078074;28;20452;-79
2023/03/13 04:40:53;;;;;;;0.30;0.30;;;10.90;99.90;;;;;;5100673;28;20565;-78
2023/03/13 04:43:18;;;;;;;0.10;0.10;;;10.90;99.90;;;;;;5100186;28;20023;-78
2023/03/13 04:45:45;;;;;;;0.10;0.10;;;10.90;99.90;;;;;;5101956;28;20032;-77
2023/03/13 04:48:11;;;;;;;0.00;0.00;;;10.80;99.90;;;;;;5082301;28;20035;-77
2023/03/13 04:50:37;;;;;;;0.00;0.00;;;10.80;99.90;;;;;;5093113;28;20032;-78
2023/03/13 04:53:02;;;;;;;0.10;0.10;;;10.80;99.90;;;;;;5097071;28;20028;-78
2023/03/13 04:55:28;;;;;;;0.10;0.10;;;10.80;99.90;;;;;;5102348;28;20471;-78
2023/03/13 04:57:54;;;;;;;0.00;0.00;;;10.80;99.90;;;;;;5097671;28;20032;-78
2023/03/13 05:00:19;;;;;;;0.10;0.10;;;10.80;99.90;;;;;;5105198;28;20050;-78
2023/03/13 05:02:45;;;;;;;0.47;0.30;;;10.70;99.90;;;;;;5098162;28;20055;-78
2023/03/13 05:05:11;;;;;;;0.13;0.13;;;10.70;99.90;;;;;;5104119;28;20047;-79
2023/03/13 05:07:37;;;;;;;0.10;0.10;;;10.70;99.90;;;;;;5103101;28;20038;-78
2023/03/13 05:10:02;;;;;;;0.10;0.10;;;10.80;99.90;;;;;;5085425;28;20555;-78
2023/03/13 05:12:28;;;;;;;0.00;0.00;;;10.80;99.90;;;;;;5102387;28;20038;-78
2023/03/13 05:14:54;;;;;;;0.17;0.17;;;10.80;99.90;;;;;;5105114;28;20028;-78
2023/03/13 05:17:20;;;;;;;0.05;0.05;;;10.90;99.90;;;;;;5096109;28;20024;-78
2023/03/13 05:19:45;;;;;;;0.07;0.07;;;11.00;99.90;;;;;;5093244;28;20032;-79
2023/03/13 05:22:11;;;;;;;0.00;0.00;;;11.10;99.90;;;;;;5103575;28;20045;-77
2023/03/13 05:24:37;;;;;;;0.10;0.10;;;11.10;99.90;;;;;;5086432;28;20043;-78
2023/03/13 05:27:02;;;;;;;0.15;0.15;;;11.00;99.90;;;;;;5097491;28;20028;-78
2023/03/13 05:29:28;;;;;;;0.10;0.10;;;11.00;99.90;;;;;;5099125;28;20035;-78
2023/03/13 05:31:54;;;;;;;0.17;0.17;;;11.00;99.90;;;;;;5079779;28;20517;-78
2023/03/13 05:34:19;;;;;;;0.30;0.30;;;11.10;99.90;;;;;;5098781;28;20036;-78
2023/03/13 05:36:45;;;;;;;0.00;0.00;;;10.90;99.90;;;;;;5077945;28;20024;-78
2023/03/13 05:39:11;;;;;;;0.00;0.00;;;10.90;99.90;;;;;;5097207;28;20027;-79
2023/03/13 05:41:36;;;;;;;0.22;0.22;;;11.00;99.90;;;;;;5102752;28;20617;-79
2023/03/13 05:44:02;;;;;;;0.33;0.33;;;10.90;99.90;;;;;;5096131;28;20702;-79
2023/03/13 05:46:28;;;;;;;0.10;0.10;;;10.90;99.90;;;;;;5092785;28;20043;-79
2023/03/13 05:48:53;;;;;;;0.10;0.10;;;10.90;99.90;;;;;;5094774;28;20085;-78
2023/03/13 05:51:19;;;;;;;0.10;0.10;;;10.80;99.90;;;;;;5102436;28;20402;-79
2023/03/13 05:53:44;;;;;;;0.10;0.10;;;10.80;99.90;;;;;;5101551;28;20173;-79
2023/03/13 05:56:13;;;;;;;0.10;0.10;;;10.70;99.90;;;;;;5097610;28;20020;-79
2023/03/13 05:58:38;;;;;;;0.10;0.10;;;10.70;99.90;;;;;;5098136;28;20099;-79
2023/03/13 06:01:10;;;;;;;0.10;0.10;;;10.70;99.90;;;;;;5099346;28;20024;-80
2023/03/13 06:03:35;;;;;;;0.00;0.00;;;10.60;99.90;;;;;;5097491;28;20569;-78
2023/03/13 06:06:01;;;;;;;0.00;0.00;;;10.60;99.90;;;;;;5090119;28;20043;-80
2023/03/13 06:08:27;;;;;;;0.10;0.10;;;10.50;99.90;;;;;;5079237;28;20497;-82
2023/03/13 06:10:53;;;;;;;0.10;0.10;;;10.50;99.90;;;;;;5100843;28;20109;-80
2023/03/13 06:13:19;;;;;;;0.10;0.10;;;10.50;99.90;;;;;;5099905;28;20032;-81
2023/03/13 06:15:55;;;;;;;0.20;0.20;;;10.40;99.90;;;;;;5100756;28;20034;-83
2023/03/13 06:18:22;;;;;;;0.08;0.08;;;10.50;99.90;;;;;;5074137;28;20028;-82
2023/03/13 06:20:49;;;;;;;0.10;0.10;;;10.60;99.90;;;;;;5089489;28;20034;-82
2023/03/13 06:23:15;;;;;;;0.10;0.10;;;10.60;99.90;;;;;;5092431;28;20032;-83
2023/03/13 06:25:41;;;;;;;0.10;0.10;;;10.60;99.90;;;;;;5088418;28;20085;-79
2023/03/13 06:28:06;;;;;;;0.00;0.00;;;10.50;99.90;;;;;;5082246;28;20040;-80
2023/03/13 06:30:32;;;;;;;0.10;0.10;;;10.60;99.90;;;;;;5093642;28;20038;-82
2023/03/13 06:32:58;;;;;;;0.10;0.10;;;10.70;99.90;;;;;;5097754;28;20434;-85
2023/03/13 06:35:24;;;;;;;0.35;0.35;;;10.70;99.90;;;;;;5084342;28;20037;-82
2023/03/13 06:37:49;;;;;;;0.00;0.00;;;10.60;99.90;;;;;;5095888;28;20024;-82
2023/03/13 06:40:15;;;;;;;0.10;0.10;;;10.60;99.90;;;;;;5084760;28;20039;-83
2023/03/13 06:42:41;;;;;;;0.30;0.30;;;10.50;99.90;;;;;;5085884;28;20024;-82
2023/03/13 06:45:07;;;;;;;0.10;0.10;;;10.40;99.90;;;;;;5083784;28;20043;-80
2023/03/13 06:47:33;;;;;;;0.00;0.00;;;10.30;99.90;;;;;;5101552;28;20027;-79
2023/03/13 06:49:58;;;;;;;0.10;0.10;;;10.40;99.90;;;;;;5102490;28;20038;-79
2023/03/13 06:52:24;;;;;;;0.10;0.10;;;10.40;99.90;;;;;;5100926;28;20027;-79
2023/03/13 06:54:50;;;;;;;0.70;0.25;;;10.40;99.90;;;;;;5100036;28;20084;-80
2023/03/13 06:57:16;;;;;;;0.10;0.10;;;10.40;99.90;;;;;;5104594;28;20025;-83
2023/03/13 06:59:42;;;;;;;0.10;0.10;;;10.40;99.90;;;;;;5102677;28;20347;-82
2023/03/13 07:02:10;;;;;;;0.47;0.47;;;10.40;99.90;;;;;;5101005;28;20082;-81
2023/03/13 07:04:36;;;;;;;0.43;0.43;;;10.50;99.90;;;;;;5103421;28;20063;-81
2023/03/13 07:07:02;;;;;;;0.20;0.20;;;11.00;99.90;;;;;;5084523;28;20054;-81
2023/03/13 07:09:28;;;;;;;0.07;0.07;;;11.30;99.90;;;;;;5071305;28;20032;-81
2023/03/13 07:11:54;;;;;;;0.00;0.00;;;12.40;99.90;;;;;;5076322;28;20324;-81
2023/03/13 07:14:19;;;;;;;0.10;0.10;;;11.60;99.90;;;;;;5081249;28;20027;-81
2023/03/13 07:16:45;;;;;;;0.00;0.00;;;11.40;99.90;;;;;;5092648;28;20648;-81
2023/03/13 07:19:12;;;;;;;0.00;0.00;;;11.70;99.90;;;;;;5074974;28;20420;-82
2023/03/13 07:21:37;;;;;;;0.10;0.10;;;11.90;99.90;;;;;;5080121;28;20785;-79
2023/03/13 07:24:03;;;;;;;0.10;0.10;;;12.10;99.90;;;;;;5100587;28;20035;-80
2023/03/13 07:26:29;;;;;;;0.10;0.10;;;12.10;99.90;;;;;;5099439;28;20077;-80
2023/03/13 07:28:55;;;;;;;0.00;0.00;;;13.00;99.90;;;;;;5083952;28;20027;-80
2023/03/13 07:31:22;;;;;;;0.00;0.00;;;13.80;99.90;;;;;;5096591;28;20020;-80
2023/03/13 07:33:51;;;;;;;0.00;0.00;;;15.00;99.90;;;;;;5072722;28;20028;-80
2023/03/13 07:36:16;;;;;;;0.70;0.45;;;16.00;99.90;;;;;;5085801;28;20020;-80
2023/03/13 07:38:42;;;;;;;0.00;0.00;;;16.70;99.90;;;;;;5099727;28;20032;-80
2023/03/13 07:41:12;;;;;;;0.00;0.00;;;17.20;99.90;;;;;;5098864;28;20032;-80
2023/03/13 07:43:37;;;;;;;0.00;0.00;;;17.70;99.90;;;;;;5080612;28;20027;-80
2023/03/13 07:46:04;;;;;;;0.00;0.00;;;18.30;99.90;;;;;;5103072;28;20050;-80
2023/03/13 07:48:33;;;;;;;0.00;0.00;;;18.80;99.90;;;;;;5098544;28;20024;-80
2023/03/13 07:50:59;;;;;;;0.20;0.20;;;18.40;99.90;;;;;;5100123;28;20061;-80
2023/03/13 07:53:26;;;;;;;0.00;0.00;;;18.10;99.90;;;;;;5100931;28;20019;-81
2023/03/13 07:55:57;;;;;;;0.00;0.00;;;18.70;99.90;;;;;;5096728;28;20138;-80
2023/03/13 07:58:23;;;;;;;1.88;1.77;;;19.10;99.70;;;;;;5103186;28;20076;-80
2023/03/13 08:00:49;;;;;;;0.00;0.00;;;18.70;99.00;;;;;;5096420;28;20028;-80
2023/03/13 08:03:15;;;;;;;0.00;0.00;;;18.70;99.90;;;;;;5096707;28;20056;-80
2023/03/13 08:05:41;;;;;;;0.00;0.00;;;19.50;98.70;;;;;;5083560;28;20060;-80
2023/03/13 08:08:07;;;;;;;0.00;0.00;;;19.60;98.10;;;;;;5082117;28;20150;-80
2023/03/13 08:10:32;;;;;;;0.00;0.00;;;20.10;97.90;;;;;;5091350;28;20062;-80
2023/03/13 08:12:58;;;;;;;0.00;0.00;;;20.40;96.70;;;;;;5090044;28;20400;-80
2023/03/13 08:15:27;;;;;;;0.00;0.00;;;18.30;99.90;;;;;;5091156;28;20020;-80
2023/03/13 08:17:53;;;;;;;0.00;0.00;;;18.00;99.90;;;;;;5097043;28;20031;-80
2023/03/13 08:20:19;;;;;;;0.60;0.35;;;17.50;99.90;;;;;;5066547;28;20089;-80
2023/03/13 08:22:45;;;;;;;0.00;0.00;;;18.60;99.30;;;;;;5097896;28;20032;-80
2023/03/13 08:25:15;;;;;;;0.00;0.00;;;19.30;99.80;;;;;;5094817;28;20047;-80
2023/03/13 08:27:40;;;;;;;0.00;0.00;;;18.80;98.10;;;;;;5092472;28;20032;-80
2023/03/13 08:30:07;;;;;;;0.00;0.00;;;20.10;96.80;;;;;;5077027;28;20531;-79
2023/03/13 08:32:33;;;;;;;;;;;20.90;95.00;;;;;;5078493;28;20164;-80
2023/03/13 08:34:58;;;;;;;0.32;0.32;;;21.10;94.60;;;;;;5077651;28;19908;-81
2023/03/13 08:37:24;;;;;;;0.00;0.00;;;21.10;93.20;;;;;;5087663;28;20043;-80
2023/03/13 08:39:50;;;;;;;0.00;0.00;;;20.80;92.30;;;;;;5089933;28;20018;-80
2023/03/13 08:42:15;;;;;;;0.00;0.00;;;20.90;92.80;;;;;;5090335;28;20055;-80
2023/03/13 08:44:41;;;;;;;0.00;0.00;;;20.90;92.00;;;;;;5086492;28;20039;-80
2023/03/13 08:47:07;;;;;;;0.00;0.00;;;21.00;91.90;;;;;;5094581;28;20077;-80
2023/03/13 08:49:33;;;;;;;0.00;0.00;;;20.30;92.40;;;;;;5087034;28;20036;-80
2023/03/13 08:51:59;;;;;;;0.00;0.00;;;20.80;92.10;;;;;;5093805;28;20078;-80
2023/03/13 08:54:25;;;;;;;0.00;0.00;;;20.60;91.90;;;;;;5079406;28;20016;-80
2023/03/13 08:56:51;;;;;;;0.00;0.00;;;20.90;91.60;;;;;;5064813;28;20545;-80
2023/03/13 08:59:17;;;;;;;0.00;0.00;;;21.00;91.50;;;;;;5098849;28;20027;-80
2023/03/13 09:01:42;;;;;;;0.00;0.00;;;20.50;91.20;;;;;;5102201;28;20032;-81
2023/03/13 09:04:08;;;;;;;0.10;0.10;;;20.80;91.40;;;;;;5100824;28;20052;-80
2023/03/13 09:06:36;;;;;;;0.00;0.00;;;21.50;90.20;;;;;;5102298;28;20027;-80
2023/03/13 09:09:02;;;;;;;0.00;0.00;;;21.50;90.60;;;;;;5081400;28;20122;-81
2023/03/13 09:11:28;;;;;;;0.00;0.00;;;22.20;88.30;;;;;;5099288;28;20023;-80
2023/03/13 09:13:55;;;;;;;0.00;0.00;;;22.40;87.90;;;;;;5082464;28;20757;-80
2023/03/13 09:16:26;;;;;;;0.00;0.00;;;22.10;85.50;;;;;;5095204;28;20498;-80
2023/03/13 09:18:52;;;;;;;0.00;0.00;;;21.50;88.00;;;;;;5102632;28;20038;-80
2023/03/13 09:21:22;;;;;;;0.00;0.00;;;21.40;87.00;;;;;;5097497;28;20023;-80
2023/03/13 09:23:49;;;;;;;0.00;0.00;;;22.90;87.20;;;;;;5094910;28;20539;-80
2023/03/13 09:26:15;;;;;;;0.00;0.00;;;22.80;84.10;;;;;;5093068;28;20071;-80
2023/03/13 09:28:42;;;;;;;0.00;0.00;;;22.60;85.20;;;;;;5101237;28;20050;-80
2023/03/13 09:31:07;;;;;;;0.00;0.00;;;23.20;82.60;;;;;;5099199;28;20038;-80
2023/03/13 09:33:33;;;;;;;0.00;0.00;;;23.80;80.80;;;;;;5096075;28;20027;-80
2023/03/13 09:35:59;;;;;;;0.00;0.00;;;23.30;80.30;;;;;;5105804;28;20126;-80
2023/03/13 09:38:25;;;;;;;0.00;0.00;;;22.90;82.40;;;;;;5074385;28;20027;-81
2023/03/13 09:40:53;;;;;;;0.00;0.00;;;22.80;81.40;;;;;;5088043;28;20039;-80
2023/03/13 09:44:04;;;;;;;0.00;0.00;;;23.10;81.80;;;;;;5091390;28;20028;-81
2023/03/13 09:47:08;;;;;;;0.00;0.00;;;23.40;81.10;;;;;;5071121;28;20056;-80
2023/03/13 09:49:41;;;;;;;0.00;0.00;;;23.60;79.10;;;;;;5104010;28;20039;-81
2023/03/13 09:52:24;;;;;;;0.00;0.00;;;24.00;78.50;;;;;;5100563;28;20081;-81
2023/03/13 09:55:20;;;;;;;0.00;0.00;;;23.40;79.90;;;;;;5082842;28;20524;-81
2023/03/13 09:57:56;;;;;;;0.00;0.00;;;23.50;82.50;;;;;;5104954;28;20031;-80
2023/03/13 10:00:35;;;;;;;0.00;0.00;;;23.30;80.00;;;;;;5092607;28;20027;-80
2023/03/13 10:03:11;;;;;;;0.00;0.00;;;23.50;79.50;;;;;;5084197;28;20048;-80
2023/03/13 10:05:46;;;;;;;0.93;0.40;;;23.00;79.50;;;;;;5104103;28;20544;-81
2023/03/13 10:08:15;;;;;;;0.00;0.00;;;23.30;79.40;;;;;;5084186;28;20039;-80
2023/03/13 10:10:59;;;;;;;0.00;0.00;;;23.10;82.80;;;;;;5087363;28;20034;-80
2023/03/13 10:13:30;;;;;;;0.00;0.00;;;23.10;83.90;;;;;;5096934;28;20024;-80
2023/03/13 10:16:00;;;;;;;0.10;0.10;;;22.80;83.90;;;;;;5100591;28;20106;-80
2023/03/13 10:18:26;;;;;;;0.00;0.00;;;22.60;83.00;;;;;;5082531;28;20760;-81
2023/03/13 10:21:01;;;;;;;0.57;0.57;;;22.80;85.40;;;;;;5101173;28;20028;-80
2023/03/13 10:23:38;;;;;;;1.08;0.55;;;22.50;82.50;;;;;;5077692;28;20031;-80
2023/03/13 10:26:04;;;;;;;0.00;0.00;;;22.60;81.60;;;;;;5099801;28;20043;-79
2023/03/13 10:28:30;;;;;;;0.20;0.20;;;22.60;82.40;;;;;;5099573;28;20130;-80
2023/03/13 10:31:10;;;;;;;0.00;0.00;;;22.60;84.70;;;;;;5097956;28;20032;-80
2023/03/13 10:33:37;;;;;;;0.00;0.00;;;22.70;83.70;;;;;;5083873;28;20105;-80
2023/03/13 10:36:12;;;;;;;0.10;0.10;;;22.60;85.60;;;;;;5081274;28;20026;-80
2023/03/13 10:38:50;;;;;;;0.00;0.00;;;22.40;84.60;;;;;;5093400;28;20685;-80
2023/03/13 10:41:46;;;;;;;0.03;0.03;;;22.50;85.70;;;;;;5075324;28;20027;-81
2023/03/13 10:44:28;;;;;;;0.00;0.00;;;22.40;83.20;;;;;;5092854;28;20035;-81
2023/03/13 10:46:59;;;;;;;0.10;0.10;;;22.40;88.10;;;;;;5089988;27;20055;-81
2023/03/13 10:49:24;;;;;;;0.00;0.00;;;22.30;86.10;;;;;;5099870;28;20109;-81
2023/03/13 10:51:56;;;;;;;0.00;0.00;;;22.30;87.70;;;;;;5085136;28;20099;-80
2023/03/13 10:54:21;;;;;;;0.00;0.00;;;22.30;89.00;;;;;;5083709;28;20027;-80
2023/03/13 10:56:48;;;;;;;0.00;0.00;;;22.20;86.80;;;;;;5094276;28;20073;-80
2023/03/13 10:59:26;;;;;;;0.00;0.00;;;22.10;85.40;;;;;;5083833;28;20031;-80
2023/03/13 11:01:57;;;;;;;0.00;0.00;;;22.10;84.40;;;;;;5084167;28;20043;-80
2023/03/13 11:04:30;;;;;;;0.00;0.00;;;22.00;86.00;;;;;;5101073;28;20087;-80
2023/03/13 11:07:24;;;;;;;0.55;0.17;;;22.00;85.60;;;;;;5092547;28;20028;-81
2023/03/13 11:10:17;;;;;;;0.00;0.00;;;22.00;86.10;;;;;;5084074;28;20111;-80
2023/03/13 11:12:50;;;;;;;0.00;0.00;;;22.20;82.00;;;;;;5083226;28;20040;-80
2023/03/13 11:15:20;;;;;;;0.00;0.00;;;22.00;83.00;;;;;;5094330;28;20421;-79
2023/03/13 11:18:15;;;;;;;0.00;0.00;;;22.10;80.20;;;;;;5099429;28;20023;-80
2023/03/13 11:20:44;;;;;;;0.00;0.00;;;22.20;84.10;;;;;;5077448;28;20047;-80
2023/03/13 11:23:18;;;;;;;0.00;0.00;;;22.20;79.80;;;;;;5084937;28;20058;-81
2023/03/13 11:26:19;;;;;;;0.00;0.00;;;22.10;79.60;;;;;;5103508;28;20063;-80
2023/03/13 11:28:59;;;;;;;0.00;0.00;;;22.20;78.20;;;;;;5096778;28;20515;-80
2023/03/13 11:31:53;;;;;;;0.10;0.10;;;22.20;75.10;;;;;;5093923;28;20020;-80
2023/03/13 11:34:55;;;;;;;0.00;0.00;;;22.00;79.30;;;;;;5103460;28;20066;-80
2023/03/13 11:37:22;;;;;;;0.00;0.00;;;22.20;78.10;;;;;;5051184;28;20143;-81
2023/03/13 11:40:05;;;;;;;0.00;0.00;;;22.20;80.00;;;;;;5099908;28;20027;-81
2023/03/13 11:42:37;;;;;;;0.00;0.00;;;22.20;80.80;;;;;;5086361;28;20403;-80
2023/03/13 11:45:21;;;;;;;0.00;0.00;;;22.20;78.30;;;;;;5096023;28;20043;-80
2023/03/13 11:47:56;;;;;;;0.00;0.00;;;22.40;76.90;;;;;;5087885;28;20028;-80
2023/03/13 11:50:36;;;;;;;0.00;0.00;;;22.20;76.50;;;;;;5096383;28;20069;-80
2023/03/13 11:53:09;;;;;;;0.25;0.25;;;22.30;78.40;;;;;;5098787;28;20130;-80
2023/03/13 11:55:35;;;;;;;0.00;0.00;;;22.30;73.60;;;;;;5092645;28;20035;-80
2023/03/13 11:58:25;;;;;;;0.17;0.10;;;22.30;75.10;;;;;;5088359;28;20520;-81
2023/03/13 12:01:08;;;;;;;0.00;0.00;;;22.20;72.90;;;;;;5083486;28;20031;-80
2023/03/13 12:04:02;;;;;;;0.00;0.00;;;22.20;70.40;;;;;;5087411;28;20047;-81
2023/03/13 12:06:43;;;;;;;0.00;0.00;;;22.20;71.10;;;;;;5099223;28;20524;-80
2023/03/13 12:09:29;;;;;;;0.00;0.00;;;22.30;71.80;;;;;;5102067;28;20023;-81
2023/03/13 12:11:58;;;;;;;;;;;22.10;74.10;;;;;;5092820;28;20039;-81
2023/03/13 12:14:40;;;;;;;0.00;0.00;;;22.20;71.60;;;;;;5100826;28;20001;-80
2023/03/13 12:17:16;;;;;;;0.00;0.00;;;22.20;74.60;;;;;;5099242;28;20023;-80
2023/03/13 12:19:51;;;;;;;0.00;0.00;;;22.20;74.20;;;;;;5099947;28;20019;-80
2023/03/13 12:22:24;;;;;;;0.00;0.00;;;22.00;73.70;;;;;;5098089;28;20066;-80
2023/03/13 12:25:00;;;;;;;0.00;0.00;;;21.80;73.90;;;;;;5101552;28;20465;-80
2023/03/13 12:27:32;;;;;;;0.50;0.10;;;22.20;75.00;;;;;;5096906;28;20876;-80
2023/03/13 12:30:16;;;;;;;0.00;0.00;;;22.60;77.00;;;;;;5096461;28;20105;-80
2023/03/13 12:33:04;;;;;;;0.00;0.00;;;22.50;73.70;;;;;;5096673;28;20494;-80
2023/03/13 12:35:33;;;;;;;6.13;0.57;;;22.60;78.00;;;;;;5095471;28;20019;-80
2023/03/13 12:38:08;;;;;;;0.00;0.00;;;22.70;77.20;;;;;;5094710;28;20028;-80
2023/03/13 12:40:48;;;;;;;0.00;0.00;;;22.70;77.10;;;;;;5069631;28;20024;-80
2023/03/13 12:43:22;;;;;;;0.05;0.05;;;22.70;79.00;;;;;;5100058;28;20542;-81
2023/03/13 12:46:04;;;;;;;0.85;0.55;;;22.70;78.20;;;;;;5091580;28;20040;-81
2023/03/13 12:48:44;;;;;;;0.00;0.00;;;22.30;78.40;;;;;;5096246;28;20031;-81
2023/03/13 12:51:44;;;;;;;0.00;0.00;;;22.10;78.40;;;;;;5094832;28;20366;-80
2023/03/13 12:54:17;;;;;;;0.00;0.00;;;22.20;79.80;;;;;;5094437;28;20028;-80
2023/03/13 12:56:51;;;;;;;0.00;0.00;;;22.40;79.40;;;;;;5097180;28;20103;-80
2023/03/13 12:59:33;;;;;;;0.00;0.00;;;22.50;78.30;;;;;;5099387;28;20031;-80